sensor_id;sensor_type;location;lat;lon;timestamp;temperature;humidity
42913;DHT22;50720;54.324;18.558;2023-03-21T00:00:48;7.10;99.90
42913;DHT22;50720;54.324;18.558;2023-03-21T00:03:23;7.10;99.90
42913;DHT22;50720;54.324;18.558;2023-03-21T00:05:55;7.10;99.90
42913;DHT22;50720;54.324;18.558;2023-03-21T00:08:25;7.10;99.90
42913;DHT22;50720;54.324;18.558;2023-03-21T00:10:56;7.10;99.90
42913;DHT22;50720;54.324;18.558;2023-03-21T00:13:27;7.10;99.90
42913;DHT22;50720;54.324;18.558;2023-03-21T00:16:03;7.10;99.90
42913;DHT22;50720;54.324;18.558;2023-03-21T00:18:48;7.10;99.90
42913;DHT22;50720;54.324;18.558;2023-03-21T00:21:22;7.10;99.90
42913;DHT22;50720;54.324;18.558;2023-03-21T00:24:15;7.00;99.90
42913;DHT22;50720;54.324;18.558;2023-03-21T00:26:48;7.00;99.90
42913;DHT22;50720;54.324;18.558;2023-03-21T00:29:18;7.10;99.90
42913;DHT22;50720;54.324;18.558;2023-03-21T00:31:48;7.10;99.90
42913;DHT22;50720;54.324;18.558;2023-03-21T00:34:18;7.10;99.90
42913;DHT22;50720;54.324;18.558;2023-03-21T00:37:09;7.10;99.90
42913;DHT22;50720;54.324;18.558;2023-03-21T00:39:41;7.20;99.90
42913;DHT22;50720;54.324;18.558;2023-03-21T00:42:14;7.20;99.90
42913;DHT22;50720;54.324;18.558;2023-03-21T00:44:44;7.10;99.90
42913;DHT22;50720;54.324;18.558;2023-03-21T00:47:15;7.00;99.90
42913;DHT22;50720;54.324;18.558;2023-03-21T00:49:49;7.10;99.90
42913;DHT22;50720;54.324;18.558;2023-03-21T00:52:20;6.90;99.90
42913;DHT22;50720;54.324;18.558;2023-03-21T00:55:09;7.00;99.90
42913;DHT22;50720;54.324;18.558;2023-03-21T00:57:41;7.00;99.90
42913;DHT22;50720;54.324;18.558;2023-03-21T01:00:23;7.00;99.90
42913;DHT22;50720;54.324;18.558;2023-03-21T01:02:54;7.00;99.90
42913;DHT22;50720;54.324;18.558;2023-03-21T01:05:46;7.00;99.90
42913;DHT22;50720;54.324;18.558;2023-03-21T01:08:41;7.00;99.90
42913;DHT22;50720;54.324;18.558;2023-03-21T01:11:22;7.00;99.90
42913;DHT22;50720;54.324;18.558;2023-03-21T01:13:52;7.00;99.90
42913;DHT22;50720;54.324;18.558;2023-03-21T01:16:41;6.90;99.90
42913;DHT22;50720;54.324;18.558;2023-03-21T01:19:13;6.90;99.90
42913;DHT22;50720;54.324;18.558;2023-03-21T01:21:54;6.90;99.90
42913;DHT22;50720;54.324;18.558;2023-03-21T01:24:26;7.00;99.90
42913;DHT22;50720;54.324;18.558;2023-03-21T01:26:56;7.00;99.90
42913;DHT22;50720;54.324;18.558;2023-03-21T01:29:25;7.00;99.90
42913;DHT22;50720;54.324;18.558;2023-03-21T01:31:56;7.00;99.90
42913;DHT22;50720;54.324;18.558;2023-03-21T01:34:26;7.00;99.90
42913;DHT22;50720;54.324;18.558;2023-03-21T01:36:57;7.00;99.90
42913;DHT22;50720;54.324;18.558;2023-03-21T01:39:29;7.10;99.90
42913;DHT22;50720;54.324;18.558;2023-03-21T01:42:01;7.10;99.90
42913;DHT22;50720;54.324;18.558;2023-03-21T01:44:31;7.10;99.90
42913;DHT22;50720;54.324;18.558;2023-03-21T01:47:02;7.10;99.90
42913;DHT22;50720;54.324;18.558;2023-03-21T01:49:41;7.10;99.90
42913;DHT22;50720;54.324;18.558;2023-03-21T01:52:18;7.10;99.90
42913;DHT22;50720;54.324;18.558;2023-03-21T01:55:07;7.00;99.90
42913;DHT22;50720;54.324;18.558;2023-03-21T01:57:43;7.10;99.90
42913;DHT22;50720;54.324;18.558;2023-03-21T02:00:32;7.10;99.90
42913;DHT22;50720;54.324;18.558;2023-03-21T02:03:06;7.10;99.90
42913;DHT22;50720;54.324;18.558;2023-03-21T02:05:51;7.10;99.90
42913;DHT22;50720;54.324;18.558;2023-03-21T02:08:23;7.00;99.90
42913;DHT22;50720;54.324;18.558;2023-03-21T02:11:07;7.00;99.90
42913;DHT22;50720;54.324;18.558;2023-03-21T02:13:37;7.00;99.90
42913;DHT22;50720;54.324;18.558;2023-03-21T02:16:13;7.00;99.90
42913;DHT22;50720;54.324;18.558;2023-03-21T02:18:53;7.00;99.90
42913;DHT22;50720;54.324;18.558;2023-03-21T02:28:00;7.00;99.90
42913;DHT22;50720;54.324;18.558;2023-03-21T02:30:44;7.00;99.90
42913;DHT22;50720;54.324;18.558;2023-03-21T02:36:25;7.00;99.90
42913;DHT22;50720;54.324;18.558;2023-03-21T02:39:04;7.00;99.90
42913;DHT22;50720;54.324;18.558;2023-03-21T02:41:43;7.00;99.90
42913;DHT22;50720;54.324;18.558;2023-03-21T02:44:20;7.00;99.90
42913;DHT22;50720;54.324;18.558;2023-03-21T02:46:56;7.00;99.90
42913;DHT22;50720;54.324;18.558;2023-03-21T02:49:33;7.00;99.90
42913;DHT22;50720;54.324;18.558;2023-03-21T02:52:09;6.90;99.90
42913;DHT22;50720;54.324;18.558;2023-03-21T02:54:54;6.90;99.90
42913;DHT22;50720;54.324;18.558;2023-03-21T02:57:25;6.90;99.90
42913;DHT22;50720;54.324;18.558;2023-03-21T03:00:11;6.90;99.90
42913;DHT22;50720;54.324;18.558;2023-03-21T03:02:45;6.90;99.90
42913;DHT22;50720;54.324;18.558;2023-03-21T03:05:28;6.90;99.90
42913;DHT22;50720;54.324;18.558;2023-03-21T03:08:09;6.90;99.90
42913;DHT22;50720;54.324;18.558;2023-03-21T03:11:00;6.80;99.90
42913;DHT22;50720;54.324;18.558;2023-03-21T03:13:50;6.70;99.90
42913;DHT22;50720;54.324;18.558;2023-03-21T03:16:30;6.70;99.90
42913;DHT22;50720;54.324;18.558;2023-03-21T03:19:07;6.70;99.90
42913;DHT22;50720;54.324;18.558;2023-03-21T03:21:41;6.70;99.90
42913;DHT22;50720;54.324;18.558;2023-03-21T03:24:16;6.70;99.90
42913;DHT22;50720;54.324;18.558;2023-03-21T03:26:52;6.60;99.90
42913;DHT22;50720;54.324;18.558;2023-03-21T03:29:27;6.60;99.90
42913;DHT22;50720;54.324;18.558;2023-03-21T03:32:00;6.50;99.90
42913;DHT22;50720;54.324;18.558;2023-03-21T03:34:34;6.60;99.90
42913;DHT22;50720;54.324;18.558;2023-03-21T03:37:08;6.50;99.90
42913;DHT22;50720;54.324;18.558;2023-03-21T03:39:42;6.50;99.90
42913;DHT22;50720;54.324;18.558;2023-03-21T03:42:18;6.50;99.90
42913;DHT22;50720;54.324;18.558;2023-03-21T03:44:56;6.40;99.90
42913;DHT22;50720;54.324;18.558;2023-03-21T03:47:30;6.40;99.90
42913;DHT22;50720;54.324;18.558;2023-03-21T03:50:15;6.40;99.90
42913;DHT22;50720;54.324;18.558;2023-03-21T03:52:48;6.40;99.90
42913;DHT22;50720;54.324;18.558;2023-03-21T03:55:25;6.40;99.90
42913;DHT22;50720;54.324;18.558;2023-03-21T03:58:06;6.30;99.90
42913;DHT22;50720;54.324;18.558;2023-03-21T04:00:50;6.30;99.90
42913;DHT22;50720;54.324;18.558;2023-03-21T04:03:20;6.30;99.90
42913;DHT22;50720;54.324;18.558;2023-03-21T04:05:50;6.20;99.90
42913;DHT22;50720;54.324;18.558;2023-03-21T04:08:19;6.20;99.90
42913;DHT22;50720;54.324;18.558;2023-03-21T04:10:50;6.10;99.90
42913;DHT22;50720;54.324;18.558;2023-03-21T04:13:21;6.10;99.90
42913;DHT22;50720;54.324;18.558;2023-03-21T04:15:51;6.00;99.90
42913;DHT22;50720;54.324;18.558;2023-03-21T04:18:20;6.00;99.90
42913;DHT22;50720;54.324;18.558;2023-03-21T04:20:51;6.00;99.90
42913;DHT22;50720;54.324;18.558;2023-03-21T04:23:20;6.00;99.90
42913;DHT22;50720;54.324;18.558;2023-03-21T04:25:50;6.00;99.90
42913;DHT22;50720;54.324;18.558;2023-03-21T04:28:25;6.00;99.90
42913;DHT22;50720;54.324;18.558;2023-03-21T04:30:55;6.00;99.90
42913;DHT22;50720;54.324;18.558;2023-03-21T04:33:35;5.90;99.90
42913;DHT22;50720;54.324;18.558;2023-03-21T04:36:07;5.90;99.90
42913;DHT22;50720;54.324;18.558;2023-03-21T04:38:54;5.90;99.90
42913;DHT22;50720;54.324;18.558;2023-03-21T04:41:28;5.80;99.90
42913;DHT22;50720;54.324;18.558;2023-03-21T04:43:58;5.80;99.90
42913;DHT22;50720;54.324;18.558;2023-03-21T04:46:31;5.80;99.90
42913;DHT22;50720;54.324;18.558;2023-03-21T04:49:01;5.80;99.90
42913;DHT22;50720;54.324;18.558;2023-03-21T04:51:38;5.80;99.90
42913;DHT22;50720;54.324;18.558;2023-03-21T04:54:07;5.80;99.90
42913;DHT22;50720;54.324;18.558;2023-03-21T04:56:37;5.80;99.90
42913;DHT22;50720;54.324;18.558;2023-03-21T04:59:11;5.90;99.90
42913;DHT22;50720;54.324;18.558;2023-03-21T05:01:41;5.90;99.90
42913;DHT22;50720;54.324;18.558;2023-03-21T05:04:12;5.90;99.90
42913;DHT22;50720;54.324;18.558;2023-03-21T05:06:43;5.90;99.90
42913;DHT22;50720;54.324;18.558;2023-03-21T05:09:13;5.80;99.90
42913;DHT22;50720;54.324;18.558;2023-03-21T05:11:44;5.80;99.90
42913;DHT22;50720;54.324;18.558;2023-03-21T05:14:19;5.80;99.90
42913;DHT22;50720;54.324;18.558;2023-03-21T05:16:51;5.80;99.90
42913;DHT22;50720;54.324;18.558;2023-03-21T05:19:24;5.70;99.90
42913;DHT22;50720;54.324;18.558;2023-03-21T05:22:04;5.70;99.90
42913;DHT22;50720;54.324;18.558;2023-03-21T05:24:36;5.70;99.90
42913;DHT22;50720;54.324;18.558;2023-03-21T05:27:09;5.70;99.90
42913;DHT22;50720;54.324;18.558;2023-03-21T05:29:42;5.70;99.90
42913;DHT22;50720;54.324;18.558;2023-03-21T05:32:12;5.80;99.90
42913;DHT22;50720;54.324;18.558;2023-03-21T05:34:42;5.80;99.90
42913;DHT22;50720;54.324;18.558;2023-03-21T05:37:12;5.80;99.90
42913;DHT22;50720;54.324;18.558;2023-03-21T05:39:41;5.90;99.90
42913;DHT22;50720;54.324;18.558;2023-03-21T05:42:11;5.90;99.90
42913;DHT22;50720;54.324;18.558;2023-03-21T05:44:43;5.90;99.90
42913;DHT22;50720;54.324;18.558;2023-03-21T05:47:14;5.90;99.90
42913;DHT22;50720;54.324;18.558;2023-03-21T05:49:44;5.90;99.90
42913;DHT22;50720;54.324;18.558;2023-03-21T05:52:14;4.50;99.90
42913;DHT22;50720;54.324;18.558;2023-03-21T05:54:45;6.00;99.90
42913;DHT22;50720;54.324;18.558;2023-03-21T05:57:16;6.00;99.90
42913;DHT22;50720;54.324;18.558;2023-03-21T05:59:47;6.10;99.90
42913;DHT22;50720;54.324;18.558;2023-03-21T06:02:18;6.10;99.90
42913;DHT22;50720;54.324;18.558;2023-03-21T06:04:48;6.20;99.90
42913;DHT22;50720;54.324;18.558;2023-03-21T06:07:18;6.20;99.90
42913;DHT22;50720;54.324;18.558;2023-03-21T06:09:48;6.20;99.90
42913;DHT22;50720;54.324;18.558;2023-03-21T06:12:18;6.30;99.90
42913;DHT22;50720;54.324;18.558;2023-03-21T06:14:48;6.20;99.90
42913;DHT22;50720;54.324;18.558;2023-03-21T06:17:18;6.30;99.90
42913;DHT22;50720;54.324;18.558;2023-03-21T06:19:48;6.30;99.90
42913;DHT22;50720;54.324;18.558;2023-03-21T06:22:18;6.50;99.90
42913;DHT22;50720;54.324;18.558;2023-03-21T06:24:50;6.50;99.90
42913;DHT22;50720;54.324;18.558;2023-03-21T06:27:20;6.50;99.90
42913;DHT22;50720;54.324;18.558;2023-03-21T06:29:51;6.60;99.90
42913;DHT22;50720;54.324;18.558;2023-03-21T06:32:24;6.70;99.90
42913;DHT22;50720;54.324;18.558;2023-03-21T06:34:54;6.40;99.90
42913;DHT22;50720;54.324;18.558;2023-03-21T06:37:24;6.50;99.90
42913;DHT22;50720;54.324;18.558;2023-03-21T06:39:54;6.60;99.90
42913;DHT22;50720;54.324;18.558;2023-03-21T06:42:24;6.60;99.90
42913;DHT22;50720;54.324;18.558;2023-03-21T06:44:55;6.70;99.90
42913;DHT22;50720;54.324;18.558;2023-03-21T06:47:25;6.80;99.90
42913;DHT22;50720;54.324;18.558;2023-03-21T06:49:54;6.80;99.90
42913;DHT22;50720;54.324;18.558;2023-03-21T06:52:24;6.90;99.90
42913;DHT22;50720;54.324;18.558;2023-03-21T06:54:54;6.80;99.90
42913;DHT22;50720;54.324;18.558;2023-03-21T06:57:24;6.90;99.90
42913;DHT22;50720;54.324;18.558;2023-03-21T06:59:55;6.80;99.90
42913;DHT22;50720;54.324;18.558;2023-03-21T07:02:28;6.80;99.90
42913;DHT22;50720;54.324;18.558;2023-03-21T07:04:57;6.60;99.90
42913;DHT22;50720;54.324;18.558;2023-03-21T07:07:27;6.60;99.90
42913;DHT22;50720;54.324;18.558;2023-03-21T07:09:57;6.60;99.90
42913;DHT22;50720;54.324;18.558;2023-03-21T07:12:27;6.70;99.90
42913;DHT22;50720;54.324;18.558;2023-03-21T07:14:57;6.70;99.90
42913;DHT22;50720;54.324;18.558;2023-03-21T07:17:27;6.80;99.90
42913;DHT22;50720;54.324;18.558;2023-03-21T07:19:57;6.80;99.90
42913;DHT22;50720;54.324;18.558;2023-03-21T07:22:27;6.80;99.90
42913;DHT22;50720;54.324;18.558;2023-03-21T07:24:56;6.90;99.90
42913;DHT22;50720;54.324;18.558;2023-03-21T07:27:32;6.90;99.90
42913;DHT22;50720;54.324;18.558;2023-03-21T07:30:03;7.00;99.90
42913;DHT22;50720;54.324;18.558;2023-03-21T07:32:34;6.90;99.90
42913;DHT22;50720;54.324;18.558;2023-03-21T07:35:04;7.00;99.90
42913;DHT22;50720;54.324;18.558;2023-03-21T07:37:34;7.00;99.90
42913;DHT22;50720;54.324;18.558;2023-03-21T07:40:06;7.10;99.90
42913;DHT22;50720;54.324;18.558;2023-03-21T07:42:38;7.00;99.90
42913;DHT22;50720;54.324;18.558;2023-03-21T07:45:11;7.00;99.90
42913;DHT22;50720;54.324;18.558;2023-03-21T07:47:46;6.90;99.90
42913;DHT22;50720;54.324;18.558;2023-03-21T07:50:19;7.00;99.90
42913;DHT22;50720;54.324;18.558;2023-03-21T07:52:49;6.90;99.90
42913;DHT22;50720;54.324;18.558;2023-03-21T07:55:19;7.00;99.90
42913;DHT22;50720;54.324;18.558;2023-03-21T07:57:49;7.00;99.90
42913;DHT22;50720;54.324;18.558;2023-03-21T08:00:22;7.10;99.90
42913;DHT22;50720;54.324;18.558;2023-03-21T08:02:54;7.00;99.90
42913;DHT22;50720;54.324;18.558;2023-03-21T08:05:27;7.00;99.90
42913;DHT22;50720;54.324;18.558;2023-03-21T08:07:57;6.90;99.90
42913;DHT22;50720;54.324;18.558;2023-03-21T08:10:27;7.00;99.90
42913;DHT22;50720;54.324;18.558;2023-03-21T08:12:57;6.90;99.90
42913;DHT22;50720;54.324;18.558;2023-03-21T08:15:28;7.00;99.90
42913;DHT22;50720;54.324;18.558;2023-03-21T08:17:59;7.20;99.90
42913;DHT22;50720;54.324;18.558;2023-03-21T08:20:28;7.20;99.90
42913;DHT22;50720;54.324;18.558;2023-03-21T08:22:58;7.30;99.90
42913;DHT22;50720;54.324;18.558;2023-03-21T08:25:27;7.50;99.90
42913;DHT22;50720;54.324;18.558;2023-03-21T08:27:58;7.70;99.90
42913;DHT22;50720;54.324;18.558;2023-03-21T08:30:29;7.70;99.90
42913;DHT22;50720;54.324;18.558;2023-03-21T08:33:00;7.70;99.90
42913;DHT22;50720;54.324;18.558;2023-03-21T08:35:30;7.60;99.90
42913;DHT22;50720;54.324;18.558;2023-03-21T08:38:01;7.70;99.90
42913;DHT22;50720;54.324;18.558;2023-03-21T08:40:31;7.60;99.90
42913;DHT22;50720;54.324;18.558;2023-03-21T08:43:00;7.60;99.90
42913;DHT22;50720;54.324;18.558;2023-03-21T08:45:33;7.50;99.90
42913;DHT22;50720;54.324;18.558;2023-03-21T08:48:03;7.70;99.90
42913;DHT22;50720;54.324;18.558;2023-03-21T08:50:33;7.60;99.90
42913;DHT22;50720;54.324;18.558;2023-03-21T08:53:03;7.50;99.90
42913;DHT22;50720;54.324;18.558;2023-03-21T08:55:32;7.60;99.90
42913;DHT22;50720;54.324;18.558;2023-03-21T08:58:03;7.60;99.90
42913;DHT22;50720;54.324;18.558;2023-03-21T09:00:34;7.70;99.90
42913;DHT22;50720;54.324;18.558;2023-03-21T09:03:04;7.60;99.90
42913;DHT22;50720;54.324;18.558;2023-03-21T09:05:36;7.60;99.90
42913;DHT22;50720;54.324;18.558;2023-03-21T09:08:06;7.70;99.90
42913;DHT22;50720;54.324;18.558;2023-03-21T09:10:35;8.00;99.90
42913;DHT22;50720;54.324;18.558;2023-03-21T09:13:06;8.00;99.90
42913;DHT22;50720;54.324;18.558;2023-03-21T09:15:37;8.00;99.90
42913;DHT22;50720;54.324;18.558;2023-03-21T09:18:07;8.30;99.90
42913;DHT22;50720;54.324;18.558;2023-03-21T09:20:42;8.40;99.90
42913;DHT22;50720;54.324;18.558;2023-03-21T09:23:13;8.60;99.90
42913;DHT22;50720;54.324;18.558;2023-03-21T09:25:44;8.50;99.90
42913;DHT22;50720;54.324;18.558;2023-03-21T09:28:14;8.50;99.90
42913;DHT22;50720;54.324;18.558;2023-03-21T09:30:45;8.50;99.90
42913;DHT22;50720;54.324;18.558;2023-03-21T09:33:15;8.60;99.90
42913;DHT22;50720;54.324;18.558;2023-03-21T09:35:48;8.60;99.90
42913;DHT22;50720;54.324;18.558;2023-03-21T09:38:19;8.70;99.90
42913;DHT22;50720;54.324;18.558;2023-03-21T09:40:58;8.80;99.90
42913;DHT22;50720;54.324;18.558;2023-03-21T09:43:39;8.70;99.90
42913;DHT22;50720;54.324;18.558;2023-03-21T09:46:18;8.60;99.90
42913;DHT22;50720;54.324;18.558;2023-03-21T09:48:54;8.50;99.90
42913;DHT22;50720;54.324;18.558;2023-03-21T09:51:27;8.50;99.90
42913;DHT22;50720;54.324;18.558;2023-03-21T09:54:04;8.50;99.90
42913;DHT22;50720;54.324;18.558;2023-03-21T09:56:36;8.40;99.90
42913;DHT22;50720;54.324;18.558;2023-03-21T09:59:09;8.40;99.90
42913;DHT22;50720;54.324;18.558;2023-03-21T10:01:46;8.60;99.90
42913;DHT22;50720;54.324;18.558;2023-03-21T10:04:16;8.80;99.90
42913;DHT22;50720;54.324;18.558;2023-03-21T10:06:53;8.90;99.90
42913;DHT22;50720;54.324;18.558;2023-03-21T10:09:26;8.90;99.90
42913;DHT22;50720;54.324;18.558;2023-03-21T10:11:59;9.10;99.90
42913;DHT22;50720;54.324;18.558;2023-03-21T10:14:34;9.30;99.90
42913;DHT22;50720;54.324;18.558;2023-03-21T10:17:14;9.20;99.90
42913;DHT22;50720;54.324;18.558;2023-03-21T10:19:50;9.10;99.90
42913;DHT22;50720;54.324;18.558;2023-03-21T10:22:23;9.20;99.90
42913;DHT22;50720;54.324;18.558;2023-03-21T10:24:53;9.20;99.90
42913;DHT22;50720;54.324;18.558;2023-03-21T10:27:23;9.30;99.90
42913;DHT22;50720;54.324;18.558;2023-03-21T10:29:53;9.40;99.90
42913;DHT22;50720;54.324;18.558;2023-03-21T10:32:26;9.60;99.90
42913;DHT22;50720;54.324;18.558;2023-03-21T10:34:57;9.50;99.90
42913;DHT22;50720;54.324;18.558;2023-03-21T10:37:27;9.70;99.90
42913;DHT22;50720;54.324;18.558;2023-03-21T10:39:57;9.70;99.90
42913;DHT22;50720;54.324;18.558;2023-03-21T10:42:29;9.80;99.90
42913;DHT22;50720;54.324;18.558;2023-03-21T10:45:00;9.70;99.90
42913;DHT22;50720;54.324;18.558;2023-03-21T10:47:32;9.50;99.90
42913;DHT22;50720;54.324;18.558;2023-03-21T10:50:04;9.10;99.90
42913;DHT22;50720;54.324;18.558;2023-03-21T10:52:41;9.30;99.90
42913;DHT22;50720;54.324;18.558;2023-03-21T10:55:17;9.70;99.90
42913;DHT22;50720;54.324;18.558;2023-03-21T10:57:51;9.70;99.90
42913;DHT22;50720;54.324;18.558;2023-03-21T11:00:24;9.70;99.90
42913;DHT22;50720;54.324;18.558;2023-03-21T11:02:57;9.90;99.90
42913;DHT22;50720;54.324;18.558;2023-03-21T11:05:34;9.80;99.90
42913;DHT22;50720;54.324;18.558;2023-03-21T11:08:09;9.90;99.90
42913;DHT22;50720;54.324;18.558;2023-03-21T11:10:50;10.00;99.90
42913;DHT22;50720;54.324;18.558;2023-03-21T11:13:24;10.50;99.90
42913;DHT22;50720;54.324;18.558;2023-03-21T11:15:58;11.00;99.90
42913;DHT22;50720;54.324;18.558;2023-03-21T11:18:48;11.10;99.90
42913;DHT22;50720;54.324;18.558;2023-03-21T11:21:18;11.30;99.90
42913;DHT22;50720;54.324;18.558;2023-03-21T11:23:49;10.90;99.90
42913;DHT22;50720;54.324;18.558;2023-03-21T11:26:21;11.40;99.90
42913;DHT22;50720;54.324;18.558;2023-03-21T11:28:54;12.60;99.90
42913;DHT22;50720;54.324;18.558;2023-03-21T11:31:36;14.30;99.90
42913;DHT22;50720;54.324;18.558;2023-03-21T11:34:08;15.10;99.90
42913;DHT22;50720;54.324;18.558;2023-03-21T11:36:38;14.40;99.90
42913;DHT22;50720;54.324;18.558;2023-03-21T11:39:27;13.90;99.90
42913;DHT22;50720;54.324;18.558;2023-03-21T11:41:58;13.30;99.90
42913;DHT22;50720;54.324;18.558;2023-03-21T11:44:30;13.40;99.90
42913;DHT22;50720;54.324;18.558;2023-03-21T11:47:01;13.20;99.90
42913;DHT22;50720;54.324;18.558;2023-03-21T11:49:32;13.00;99.90
42913;DHT22;50720;54.324;18.558;2023-03-21T11:52:10;13.90;99.90
42913;DHT22;50720;54.324;18.558;2023-03-21T11:55:01;14.30;99.90
42913;DHT22;50720;54.324;18.558;2023-03-21T11:57:34;15.30;99.90
42913;DHT22;50720;54.324;18.558;2023-03-21T12:00:14;15.90;99.90
42913;DHT22;50720;54.324;18.558;2023-03-21T12:03:07;17.30;99.90
42913;DHT22;50720;54.324;18.558;2023-03-21T12:05:44;16.90;98.80
42913;DHT22;50720;54.324;18.558;2023-03-21T12:08:26;16.70;99.10
42913;DHT22;50720;54.324;18.558;2023-03-21T12:11:04;16.70;98.70
42913;DHT22;50720;54.324;18.558;2023-03-21T12:13:46;16.90;98.30
42913;DHT22;50720;54.324;18.558;2023-03-21T12:16:27;17.50;96.70
42913;DHT22;50720;54.324;18.558;2023-03-21T12:22:05;19.10;92.80
42913;DHT22;50720;54.324;18.558;2023-03-21T12:24:38;19.20;90.40
42913;DHT22;50720;54.324;18.558;2023-03-21T12:27:15;19.50;87.30
42913;DHT22;50720;54.324;18.558;2023-03-21T12:30:01;19.90;83.10
42913;DHT22;50720;54.324;18.558;2023-03-21T12:32:43;20.60;80.70
42913;DHT22;50720;54.324;18.558;2023-03-21T12:35:26;21.10;73.00
42913;DHT22;50720;54.324;18.558;2023-03-21T12:38:17;19.80;73.40
42913;DHT22;50720;54.324;18.558;2023-03-21T12:41:20;19.10;75.20
42913;DHT22;50720;54.324;18.558;2023-03-21T12:43:55;18.70;77.60
42913;DHT22;50720;54.324;18.558;2023-03-21T12:46:32;18.00;79.30
42913;DHT22;50720;54.324;18.558;2023-03-21T12:49:09;18.50;79.90
42913;DHT22;50720;54.324;18.558;2023-03-21T12:51:43;18.80;80.20
42913;DHT22;50720;54.324;18.558;2023-03-21T12:54:22;19.20;79.80
42913;DHT22;50720;54.324;18.558;2023-03-21T12:56:55;19.20;78.00
42913;DHT22;50720;54.324;18.558;2023-03-21T12:59:32;18.80;79.20
42913;DHT22;50720;54.324;18.558;2023-03-21T13:02:13;17.70;81.60
42913;DHT22;50720;54.324;18.558;2023-03-21T13:04:54;17.50;82.90
42913;DHT22;50720;54.324;18.558;2023-03-21T13:07:31;17.70;82.80
42913;DHT22;50720;54.324;18.558;2023-03-21T13:10:13;18.00;82.30
42913;DHT22;50720;54.324;18.558;2023-03-21T13:12:50;17.70;83.40
42913;DHT22;50720;54.324;18.558;2023-03-21T13:15:37;18.00;82.60
42913;DHT22;50720;54.324;18.558;2023-03-21T13:18:15;17.90;79.60
42913;DHT22;50720;54.324;18.558;2023-03-21T13:20:49;17.70;78.10
42913;DHT22;50720;54.324;18.558;2023-03-21T13:23:21;17.50;77.20
42913;DHT22;50720;54.324;18.558;2023-03-21T13:25:54;17.80;78.90
42913;DHT22;50720;54.324;18.558;2023-03-21T13:28:28;18.20;81.40
42913;DHT22;50720;54.324;18.558;2023-03-21T13:31:19;18.90;78.40
42913;DHT22;50720;54.324;18.558;2023-03-21T13:33:50;18.60;78.20
42913;DHT22;50720;54.324;18.558;2023-03-21T13:36:23;18.90;80.10
42913;DHT22;50720;54.324;18.558;2023-03-21T13:38:58;19.50;75.80
42913;DHT22;50720;54.324;18.558;2023-03-21T13:41:33;19.20;75.70
42913;DHT22;50720;54.324;18.558;2023-03-21T13:44:15;19.30;76.30
42913;DHT22;50720;54.324;18.558;2023-03-21T13:46:53;20.00;75.50
42913;DHT22;50720;54.324;18.558;2023-03-21T13:49:29;19.60;79.20
42913;DHT22;50720;54.324;18.558;2023-03-21T13:52:01;19.50;82.50
42913;DHT22;50720;54.324;18.558;2023-03-21T13:54:48;19.40;83.00
42913;DHT22;50720;54.324;18.558;2023-03-21T13:57:34;19.10;82.70
42913;DHT22;50720;54.324;18.558;2023-03-21T14:00:19;19.00;83.80
42913;DHT22;50720;54.324;18.558;2023-03-21T14:02:54;18.40;84.90
42913;DHT22;50720;54.324;18.558;2023-03-21T14:05:25;18.20;85.60
42913;DHT22;50720;54.324;18.558;2023-03-21T14:07:59;18.30;86.90
42913;DHT22;50720;54.324;18.558;2023-03-21T14:10:44;18.60;84.80
42913;DHT22;50720;54.324;18.558;2023-03-21T14:13:20;18.40;85.70
42913;DHT22;50720;54.324;18.558;2023-03-21T14:15:53;18.50;86.80
42913;DHT22;50720;54.324;18.558;2023-03-21T14:18:26;18.30;86.20
42913;DHT22;50720;54.324;18.558;2023-03-21T14:21:19;18.00;86.10
42913;DHT22;50720;54.324;18.558;2023-03-21T14:23:59;17.50;86.80
42913;DHT22;50720;54.324;18.558;2023-03-21T14:26:31;17.60;89.10
42913;DHT22;50720;54.324;18.558;2023-03-21T14:29:04;17.70;90.40
42913;DHT22;50720;54.324;18.558;2023-03-21T14:34:25;17.50;89.80
42913;DHT22;50720;54.324;18.558;2023-03-21T14:36:55;17.40;88.40
42913;DHT22;50720;54.324;18.558;2023-03-21T14:39:27;17.20;90.90
42913;DHT22;50720;54.324;18.558;2023-03-21T14:42:02;17.40;90.40
42913;DHT22;50720;54.324;18.558;2023-03-21T14:44:36;17.60;90.40
42913;DHT22;50720;54.324;18.558;2023-03-21T14:47:25;17.50;90.50
42913;DHT22;50720;54.324;18.558;2023-03-21T14:49:55;17.10;90.60
42913;DHT22;50720;54.324;18.558;2023-03-21T14:52:26;17.20;90.90
42913;DHT22;50720;54.324;18.558;2023-03-21T14:54:58;17.20;90.80
42913;DHT22;50720;54.324;18.558;2023-03-21T14:57:30;17.20;90.70
42913;DHT22;50720;54.324;18.558;2023-03-21T15:00:04;17.00;91.10
42913;DHT22;50720;54.324;18.558;2023-03-21T15:02:40;17.30;90.60
42913;DHT22;50720;54.324;18.558;2023-03-21T15:05:16;17.30;91.00
42913;DHT22;50720;54.324;18.558;2023-03-21T15:07:53;17.10;91.60
42913;DHT22;50720;54.324;18.558;2023-03-21T15:10:24;16.80;91.60
42913;DHT22;50720;54.324;18.558;2023-03-21T15:12:57;16.60;92.60
42913;DHT22;50720;54.324;18.558;2023-03-21T15:15:29;16.40;92.70
42913;DHT22;50720;54.324;18.558;2023-03-21T15:18:03;16.30;93.00
42913;DHT22;50720;54.324;18.558;2023-03-21T15:20:35;16.10;93.70
42913;DHT22;50720;54.324;18.558;2023-03-21T15:23:09;16.20;93.70
42913;DHT22;50720;54.324;18.558;2023-03-21T15:25:41;16.10;93.90
42913;DHT22;50720;54.324;18.558;2023-03-21T15:28:15;16.00;94.20
42913;DHT22;50720;54.324;18.558;2023-03-21T15:30:47;15.70;94.60
42913;DHT22;50720;54.324;18.558;2023-03-21T15:33:19;15.70;95.10
42913;DHT22;50720;54.324;18.558;2023-03-21T15:35:51;15.70;95.00
42913;DHT22;50720;54.324;18.558;2023-03-21T15:38:28;15.30;95.80
42913;DHT22;50720;54.324;18.558;2023-03-21T15:41:21;15.30;96.50
42913;DHT22;50720;54.324;18.558;2023-03-21T15:44:01;15.30;96.30
42913;DHT22;50720;54.324;18.558;2023-03-21T15:46:38;15.00;97.10
42913;DHT22;50720;54.324;18.558;2023-03-21T15:49:17;14.50;98.10
42913;DHT22;50720;54.324;18.558;2023-03-21T15:51:50;14.60;98.90
42913;DHT22;50720;54.324;18.558;2023-03-21T15:54:23;13.90;99.90
42913;DHT22;50720;54.324;18.558;2023-03-21T15:56:54;13.40;99.90
42913;DHT22;50720;54.324;18.558;2023-03-21T15:59:26;12.70;99.90
42913;DHT22;50720;54.324;18.558;2023-03-21T16:02:00;12.30;99.90
42913;DHT22;50720;54.324;18.558;2023-03-21T16:04:30;12.00;99.90
42913;DHT22;50720;54.324;18.558;2023-03-21T16:07:02;11.80;99.90
42913;DHT22;50720;54.324;18.558;2023-03-21T16:09:43;11.50;99.90
42913;DHT22;50720;54.324;18.558;2023-03-21T16:12:14;11.10;99.90
42913;DHT22;50720;54.324;18.558;2023-03-21T16:14:45;10.90;99.90
42913;DHT22;50720;54.324;18.558;2023-03-21T16:17:29;10.70;99.90
42913;DHT22;50720;54.324;18.558;2023-03-21T16:20:00;10.70;99.90
42913;DHT22;50720;54.324;18.558;2023-03-21T16:22:35;10.40;99.90
42913;DHT22;50720;54.324;18.558;2023-03-21T16:25:06;10.10;99.90